sensor_id;sensor_type;location;lat;lon;timestamp;P1;P4;P2;P0;N10;N4;N25;N1;N05;TS
84586;SPS30;74809;48.198;16.302;2024-03-29T00:02:00;1.1;;1.1;1.0;;;;;;
84586;SPS30;74809;48.198;16.302;2024-03-29T00:07:00;1.2;;1.2;1.1;;;;;;
84586;SPS30;74809;48.198;16.302;2024-03-29T00:12:00;0.7;;0.7;0.6;;;;;;
84586;SPS30;74809;48.198;16.302;2024-03-29T00:17:00;0.3;;0.3;0.3;;;;;;
84586;SPS30;74809;48.198;16.302;2024-03-29T00:22:00;0.5;;0.5;0.5;;;;;;
84586;SPS30;74809;48.198;16.302;2024-03-29T00:27:00;0.7;;0.8;0.7;;;;;;
84586;SPS30;74809;48.198;16.302;2024-03-29T00:32:00;1.3;;1.3;1.2;;;;;;
84586;SPS30;74809;48.198;16.302;2024-03-29T00:37:00;0.8;;0.8;0.8;;;;;;
84586;SPS30;74809;48.198;16.302;2024-03-29T00:42:00;0.8;;0.8;0.7;;;;;;
84586;SPS30;74809;48.198;16.302;2024-03-29T00:47:00;1.2;;1.2;1.1;;;;;;
84586;SPS30;74809;48.198;16.302;2024-03-29T00:52:01;1.5;;1.5;1.4;;;;;;
84586;SPS30;74809;48.198;16.302;2024-03-29T00:57:00;0.9;;0.9;0.8;;;;;;
84586;SPS30;74809;48.198;16.302;2024-03-29T01:02:00;1.0;;1.0;1.0;;;;;;
84586;SPS30;74809;48.198;16.302;2024-03-29T01:07:00;1.0;;1.0;0.9;;;;;;
84586;SPS30;74809;48.198;16.302;2024-03-29T01:12:00;0.9;;0.9;0.8;;;;;;
84586;SPS30;74809;48.198;16.302;2024-03-29T01:17:00;1.0;;1.1;0.9;;;;;;
84586;SPS30;74809;48.198;16.302;2024-03-29T01:22:00;0.5;;0.5;0.4;;;;;;
84586;SPS30;74809;48.198;16.302;2024-03-29T01:27:00;0.7;;0.7;0.6;;;;;;
84586;SPS30;74809;48.198;16.302;2024-03-29T01:32:00;0.8;;0.8;0.7;;;;;;
84586;SPS30;74809;48.198;16.302;2024-03-29T01:37:00;0.9;;0.9;0.8;;;;;;
84586;SPS30;74809;48.198;16.302;2024-03-29T01:42:00;0.8;;0.8;0.8;;;;;;
84586;SPS30;74809;48.198;16.302;2024-03-29T01:47:00;1.3;;1.3;1.2;;;;;;
84586;SPS30;74809;48.198;16.302;2024-03-29T01:52:00;0.8;;0.8;0.8;;;;;;
84586;SPS30;74809;48.198;16.302;2024-03-29T01:57:00;1.1;;1.2;1.1;;;;;;
84586;SPS30;74809;48.198;16.302;2024-03-29T02:02:00;1.1;;1.1;1.0;;;;;;
84586;SPS30;74809;48.198;16.302;2024-03-29T02:07:00;1.1;;1.1;1.1;;;;;;
84586;SPS30;74809;48.198;16.302;2024-03-29T02:12:00;0.8;;0.8;0.8;;;;;;
84586;SPS30;74809;48.198;16.302;2024-03-29T02:17:01;0.7;;0.7;0.7;;;;;;
84586;SPS30;74809;48.198;16.302;2024-03-29T02:22:00;1.2;;1.2;1.1;;;;;;
84586;SPS30;74809;48.198;16.302;2024-03-29T02:27:00;0.9;;0.9;0.9;;;;;;
84586;SPS30;74809;48.198;16.302;2024-03-29T02:32:00;0.9;;0.9;0.8;;;;;;
84586;SPS30;74809;48.198;16.302;2024-03-29T02:37:01;0.8;;0.8;0.8;;;;;;
84586;SPS30;74809;48.198;16.302;2024-03-29T02:42:00;1.5;;1.5;1.4;;;;;;
84586;SPS30;74809;48.198;16.302;2024-03-29T02:47:00;1.3;;1.4;1.3;;;;;;
84586;SPS30;74809;48.198;16.302;2024-03-29T02:52:00;0.9;;1.0;0.9;;;;;;
84586;SPS30;74809;48.198;16.302;2024-03-29T02:57:00;1.0;;1.0;0.9;;;;;;
84586;SPS30;74809;48.198;16.302;2024-03-29T03:02:00;0.9;;0.9;0.9;;;;;;
84586;SPS30;74809;48.198;16.302;2024-03-29T03:07:00;1.1;;1.1;1.0;;;;;;
84586;SPS30;74809;48.198;16.302;2024-03-29T03:12:00;1.2;;1.3;1.2;;;;;;
84586;SPS30;74809;48.198;16.302;2024-03-29T03:17:00;1.8;;1.8;1.7;;;;;;
84586;SPS30;74809;48.198;16.302;2024-03-29T03:22:00;1.2;;1.3;1.2;;;;;;
84586;SPS30;74809;48.198;16.302;2024-03-29T03:27:00;1.6;;1.7;1.5;;;;;;
84586;SPS30;74809;48.198;16.302;2024-03-29T03:32:00;1.3;;1.3;1.2;;;;;;
84586;SPS30;74809;48.198;16.302;2024-03-29T03:37:00;1.2;;1.2;1.1;;;;;;
84586;SPS30;74809;48.198;16.302;2024-03-29T03:42:00;1.7;;1.7;1.6;;;;;;
84586;SPS30;74809;48.198;16.302;2024-03-29T03:47:00;1.5;;1.6;1.4;;;;;;
84586;SPS30;74809;48.198;16.302;2024-03-29T03:52:00;1.4;;1.5;1.4;;;;;;
84586;SPS30;74809;48.198;16.302;2024-03-29T03:57:00;1.2;;1.3;1.2;;;;;;
84586;SPS30;74809;48.198;16.302;2024-03-29T04:02:01;1.4;;1.4;1.3;;;;;;
84586;SPS30;74809;48.198;16.302;2024-03-29T04:07:00;1.0;;1.0;1.0;;;;;;
84586;SPS30;74809;48.198;16.302;2024-03-29T04:12:00;1.3;;1.3;1.2;;;;;;
84586;SPS30;74809;48.198;16.302;2024-03-29T04:17:00;1.2;;1.2;1.1;;;;;;
84586;SPS30;74809;48.198;16.302;2024-03-29T04:22:00;1.5;;1.5;1.4;;;;;;
84586;SPS30;74809;48.198;16.302;2024-03-29T04:27:00;1.1;;1.2;1.1;;;;;;
84586;SPS30;74809;48.198;16.302;2024-03-29T04:32:00;1.5;;1.6;1.5;;;;;;
84586;SPS30;74809;48.198;16.302;2024-03-29T04:37:00;2.0;;2.0;1.9;;;;;;
84586;SPS30;74809;48.198;16.302;2024-03-29T04:42:00;1.7;;1.7;1.6;;;;;;
84586;SPS30;74809;48.198;16.302;2024-03-29T04:47:00;1.5;;1.5;1.4;;;;;;
84586;SPS30;74809;48.198;16.302;2024-03-29T04:52:00;2.3;;2.4;2.2;;;;;;
84586;SPS30;74809;48.198;16.302;2024-03-29T04:57:01;2.6;;2.6;2.5;;;;;;
84586;SPS30;74809;48.198;16.302;2024-03-29T05:02:01;3.9;;3.9;3.7;;;;;;
84586;SPS30;74809;48.198;16.302;2024-03-29T05:07:00;2.5;;2.5;2.4;;;;;;
84586;SPS30;74809;48.198;16.302;2024-03-29T05:12:00;2.4;;2.4;2.3;;;;;;
84586;SPS30;74809;48.198;16.302;2024-03-29T05:17:00;2.2;;2.3;2.1;;;;;;
84586;SPS30;74809;48.198;16.302;2024-03-29T05:22:00;5.2;;5.2;5.0;;;;;;
84586;SPS30;74809;48.198;16.302;2024-03-29T05:27:01;4.6;;4.6;4.4;;;;;;
84586;SPS30;74809;48.198;16.302;2024-03-29T05:32:00;3.8;;3.9;3.6;;;;;;
84586;SPS30;74809;48.198;16.302;2024-03-29T05:37:00;4.4;;4.5;4.1;;;;;;
84586;SPS30;74809;48.198;16.302;2024-03-29T05:42:00;4.3;;4.4;4.1;;;;;;
84586;SPS30;74809;48.198;16.302;2024-03-29T05:47:00;3.1;;3.2;2.9;;;;;;
84586;SPS30;74809;48.198;16.302;2024-03-29T05:52:00;3.4;;3.4;3.2;;;;;;
84586;SPS30;74809;48.198;16.302;2024-03-29T05:57:00;2.0;;2.0;1.9;;;;;;
84586;SPS30;74809;48.198;16.302;2024-03-29T06:02:00;2.6;;2.6;2.5;;;;;;
84586;SPS30;74809;48.198;16.302;2024-03-29T06:07:01;3.2;;3.2;3.0;;;;;;
84586;SPS30;74809;48.198;16.302;2024-03-29T06:12:00;2.1;;2.1;2.0;;;;;;
84586;SPS30;74809;48.198;16.302;2024-03-29T06:17:00;2.3;;2.3;2.2;;;;;;
84586;SPS30;74809;48.198;16.302;2024-03-29T06:22:00;2.1;;2.1;2.0;;;;;;
84586;SPS30;74809;48.198;16.302;2024-03-29T06:27:01;2.4;;2.5;2.3;;;;;;
84586;SPS30;74809;48.198;16.302;2024-03-29T06:32:00;1.7;;1.7;1.6;;;;;;
84586;SPS30;74809;48.198;16.302;2024-03-29T06:37:01;1.6;;1.6;1.5;;;;;;
84586;SPS30;74809;48.198;16.302;2024-03-29T06:42:00;1.3;;1.3;1.2;;;;;;
84586;SPS30;74809;48.198;16.302;2024-03-29T06:47:00;0.9;;0.9;0.8;;;;;;
84586;SPS30;74809;48.198;16.302;2024-03-29T06:52:00;1.3;;1.3;1.2;;;;;;
84586;SPS30;74809;48.198;16.302;2024-03-29T06:57:00;1.0;;1.0;1.0;;;;;;
84586;SPS30;74809;48.198;16.302;2024-03-29T07:02:01;1.1;;1.2;1.1;;;;;;
84586;SPS30;74809;48.198;16.302;2024-03-29T07:07:00;1.2;;1.2;1.1;;;;;;
84586;SPS30;74809;48.198;16.302;2024-03-29T07:12:00;1.1;;1.1;1.0;;;;;;
84586;SPS30;74809;48.198;16.302;2024-03-29T07:17:00;1.7;;1.7;1.6;;;;;;
84586;SPS30;74809;48.198;16.302;2024-03-29T07:22:01;1.6;;1.6;1.5;;;;;;
84586;SPS30;74809;48.198;16.302;2024-03-29T07:27:00;1.4;;1.4;1.3;;;;;;
84586;SPS30;74809;48.198;16.302;2024-03-29T07:32:00;1.2;;1.2;1.1;;;;;;
84586;SPS30;74809;48.198;16.302;2024-03-29T07:37:00;1.1;;1.1;1.0;;;;;;
84586;SPS30;74809;48.198;16.302;2024-03-29T07:42:00;1.2;;1.2;1.2;;;;;;
84586;SPS30;74809;48.198;16.302;2024-03-29T07:47:00;1.0;;1.0;0.9;;;;;;
84586;SPS30;74809;48.198;16.302;2024-03-29T07:52:02;0.9;;0.9;0.9;;;;;;
84586;SPS30;74809;48.198;16.302;2024-03-29T07:57:00;1.3;;1.3;1.3;;;;;;
84586;SPS30;74809;48.198;16.302;2024-03-29T08:02:00;1.3;;1.3;1.2;;;;;;
84586;SPS30;74809;48.198;16.302;2024-03-29T08:07:00;1.0;;1.0;0.9;;;;;;
84586;SPS30;74809;48.198;16.302;2024-03-29T08:12:01;0.9;;0.9;0.8;;;;;;
84586;SPS30;74809;48.198;16.302;2024-03-29T08:17:00;1.1;;1.1;1.1;;;;;;
84586;SPS30;74809;48.198;16.302;2024-03-29T08:22:00;0.9;;0.9;0.9;;;;;;
84586;SPS30;74809;48.198;16.302;2024-03-29T08:27:01;1.3;;1.4;1.2;;;;;;
84586;SPS30;74809;48.198;16.302;2024-03-29T08:32:00;1.1;;1.1;1.0;;;;;;
84586;SPS30;74809;48.198;16.302;2024-03-29T08:37:01;1.2;;1.2;1.1;;;;;;
84586;SPS30;74809;48.198;16.302;2024-03-29T08:42:00;1.1;;1.1;1.0;;;;;;
84586;SPS30;74809;48.198;16.302;2024-03-29T08:47:01;0.8;;0.9;0.8;;;;;;
84586;SPS30;74809;48.198;16.302;2024-03-29T08:52:01;1.3;;1.4;1.2;;;;;;
84586;SPS30;74809;48.198;16.302;2024-03-29T08:57:00;1.0;;1.1;1.0;;;;;;
84586;SPS30;74809;48.198;16.302;2024-03-29T09:02:04;0.9;;0.9;0.8;;;;;;
84586;SPS30;74809;48.198;16.302;2024-03-29T09:07:01;2.0;;2.0;1.9;;;;;;
84586;SPS30;74809;48.198;16.302;2024-03-29T09:12:01;1.2;;1.2;1.2;;;;;;
84586;SPS30;74809;48.198;16.302;2024-03-29T09:17:00;0.9;;0.9;0.9;;;;;;
84586;SPS30;74809;48.198;16.302;2024-03-29T09:22:01;1.3;;1.3;1.2;;;;;;
84586;SPS30;74809;48.198;16.302;2024-03-29T09:27:01;1.1;;1.2;1.1;;;;;;
84586;SPS30;74809;48.198;16.302;2024-03-29T09:32:01;2.1;;2.2;2.0;;;;;;
84586;SPS30;74809;48.198;16.302;2024-03-29T09:37:01;1.3;;1.3;1.2;;;;;;
84586;SPS30;74809;48.198;16.302;2024-03-29T09:42:01;1.4;;1.5;1.3;;;;;;
84586;SPS30;74809;48.198;16.302;2024-03-29T09:47:02;1.3;;1.3;1.2;;;;;;
84586;SPS30;74809;48.198;16.302;2024-03-29T09:52:01;1.4;;1.5;1.3;;;;;;
84586;SPS30;74809;48.198;16.302;2024-03-29T09:57:01;2.1;;2.2;1.9;;;;;;
84586;SPS30;74809;48.198;16.302;2024-03-29T10:02:01;1.6;;1.7;1.5;;;;;;
84586;SPS30;74809;48.198;16.302;2024-03-29T10:07:01;1.5;;1.6;1.4;;;;;;
84586;SPS30;74809;48.198;16.302;2024-03-29T10:12:01;1.1;;1.3;1.0;;;;;;
84586;SPS30;74809;48.198;16.302;2024-03-29T10:17:01;1.4;;1.5;1.2;;;;;;
84586;SPS30;74809;48.198;16.302;2024-03-29T10:22:06;1.1;;1.2;1.0;;;;;;
84586;SPS30;74809;48.198;16.302;2024-03-29T10:27:01;5.6;;6.0;5.1;;;;;;
84586;SPS30;74809;48.198;16.302;2024-03-29T10:32:01;1.2;;1.3;1.1;;;;;;
84586;SPS30;74809;48.198;16.302;2024-03-29T10:37:01;1.3;;1.5;1.2;;;;;;
84586;SPS30;74809;48.198;16.302;2024-03-29T10:42:01;1.7;;1.9;1.5;;;;;;
84586;SPS30;74809;48.198;16.302;2024-03-29T10:47:01;1.5;;1.6;1.4;;;;;;
84586;SPS30;74809;48.198;16.302;2024-03-29T10:52:01;1.7;;1.8;1.4;;;;;;
84586;SPS30;74809;48.198;16.302;2024-03-29T10:57:03;1.4;;1.5;1.2;;;;;;
84586;SPS30;74809;48.198;16.302;2024-03-29T11:02:01;1.4;;1.6;1.3;;;;;;
84586;SPS30;74809;48.198;16.302;2024-03-29T11:07:02;1.6;;1.7;1.4;;;;;;
84586;SPS30;74809;48.198;16.302;2024-03-29T11:12:01;1.1;;1.2;1.0;;;;;;
84586;SPS30;74809;48.198;16.302;2024-03-29T11:17:01;1.9;;2.1;1.7;;;;;;
84586;SPS30;74809;48.198;16.302;2024-03-29T11:22:01;1.6;;1.7;1.4;;;;;;
84586;SPS30;74809;48.198;16.302;2024-03-29T11:27:07;1.4;;1.5;1.3;;;;;;
84586;SPS30;74809;48.198;16.302;2024-03-29T11:32:01;1.4;;1.5;1.3;;;;;;
84586;SPS30;74809;48.198;16.302;2024-03-29T11:37:07;1.5;;1.6;1.4;;;;;;
84586;SPS30;74809;48.198;16.302;2024-03-29T11:42:01;1.4;;1.5;1.2;;;;;;
84586;SPS30;74809;48.198;16.302;2024-03-29T11:47:01;1.4;;1.5;1.3;;;;;;
84586;SPS30;74809;48.198;16.302;2024-03-29T11:52:05;0.9;;1.0;0.8;;;;;;
84586;SPS30;74809;48.198;16.302;2024-03-29T11:57:01;1.2;;1.3;1.1;;;;;;
84586;SPS30;74809;48.198;16.302;2024-03-29T12:02:01;1.4;;1.5;1.3;;;;;;
84586;SPS30;74809;48.198;16.302;2024-03-29T12:07:01;1.5;;1.5;1.3;;;;;;
84586;SPS30;74809;48.198;16.302;2024-03-29T12:12:01;1.3;;1.3;1.2;;;;;;
84586;SPS30;74809;48.198;16.302;2024-03-29T12:17:01;1.2;;1.2;1.0;;;;;;
84586;SPS30;74809;48.198;16.302;2024-03-29T12:22:01;1.4;;1.5;1.3;;;;;;
84586;SPS30;74809;48.198;16.302;2024-03-29T12:27:01;1.4;;1.5;1.3;;;;;;
84586;SPS30;74809;48.198;16.302;2024-03-29T12:32:01;1.8;;1.9;1.6;;;;;;
84586;SPS30;74809;48.198;16.302;2024-03-29T12:37:01;1.5;;1.6;1.4;;;;;;
84586;SPS30;74809;48.198;16.302;2024-03-29T12:42:01;1.4;;1.5;1.3;;;;;;
84586;SPS30;74809;48.198;16.302;2024-03-29T12:47:01;1.0;;1.0;1.0;;;;;;
84586;SPS30;74809;48.198;16.302;2024-03-29T12:52:01;1.2;;1.3;1.1;;;;;;
84586;SPS30;74809;48.198;16.302;2024-03-29T12:57:01;1.7;;1.8;1.6;;;;;;
84586;SPS30;74809;48.198;16.302;2024-03-29T13:02:01;1.2;;1.2;1.1;;;;;;
84586;SPS30;74809;48.198;16.302;2024-03-29T13:07:01;1.4;;1.4;1.3;;;;;;
84586;SPS30;74809;48.198;16.302;2024-03-29T13:12:01;0.9;;1.0;0.9;;;;;;
84586;SPS30;74809;48.198;16.302;2024-03-29T13:17:01;1.6;;1.6;1.4;;;;;;
84586;SPS30;74809;48.198;16.302;2024-03-29T13:22:01;1.0;;1.1;1.0;;;;;;
84586;SPS30;74809;48.198;16.302;2024-03-29T13:27:01;1.1;;1.2;1.1;;;;;;
84586;SPS30;74809;48.198;16.302;2024-03-29T13:32:01;1.3;;1.3;1.2;;;;;;
84586;SPS30;74809;48.198;16.302;2024-03-29T13:37:01;1.3;;1.3;1.2;;;;;;
84586;SPS30;74809;48.198;16.302;2024-03-29T13:42:01;1.0;;1.1;1.0;;;;;;
84586;SPS30;74809;48.198;16.302;2024-03-29T13:47:01;1.4;;1.5;1.3;;;;;;
84586;SPS30;74809;48.198;16.302;2024-03-29T13:52:01;0.9;;1.0;0.9;;;;;;
84586;SPS30;74809;48.198;16.302;2024-03-29T13:57:01;2.0;;2.0;1.8;;;;;;
84586;SPS30;74809;48.198;16.302;2024-03-29T14:02:01;1.2;;1.2;1.1;;;;;;
84586;SPS30;74809;48.198;16.302;2024-03-29T14:07:01;0.8;;0.8;0.8;;;;;;
84586;SPS30;74809;48.198;16.302;2024-03-29T14:12:01;0.9;;0.9;0.8;;;;;;
84586;SPS30;74809;48.198;16.302;2024-03-29T14:17:01;1.4;;1.5;1.3;;;;;;
84586;SPS30;74809;48.198;16.302;2024-03-29T14:22:01;1.5;;1.5;1.4;;;;;;
84586;SPS30;74809;48.198;16.302;2024-03-29T14:27:01;1.2;;1.2;1.1;;;;;;
84586;SPS30;74809;48.198;16.302;2024-03-29T14:32:01;1.9;;1.9;1.8;;;;;;
84586;SPS30;74809;48.198;16.302;2024-03-29T14:37:01;1.5;;1.6;1.4;;;;;;
84586;SPS30;74809;48.198;16.302;2024-03-29T14:42:01;1.5;;1.6;1.5;;;;;;
84586;SPS30;74809;48.198;16.302;2024-03-29T14:47:01;1.1;;1.2;1.1;;;;;;
84586;SPS30;74809;48.198;16.302;2024-03-29T14:52:01;1.1;;1.2;1.1;;;;;;
84586;SPS30;74809;48.198;16.302;2024-03-29T14:57:01;1.5;;1.6;1.5;;;;;;
84586;SPS30;74809;48.198;16.302;2024-03-29T15:02:01;1.2;;1.2;1.1;;;;;;
84586;SPS30;74809;48.198;16.302;2024-03-29T15:07:01;1.1;;1.1;1.0;;;;;;
84586;SPS30;74809;48.198;16.302;2024-03-29T15:12:01;1.0;;1.0;1.0;;;;;;
84586;SPS30;74809;48.198;16.302;2024-03-29T15:17:01;1.3;;1.3;1.2;;;;;;
84586;SPS30;74809;48.198;16.302;2024-03-29T15:22:01;0.7;;0.7;0.7;;;;;;
84586;SPS30;74809;48.198;16.302;2024-03-29T15:27:01;0.9;;0.9;0.8;;;;;;
84586;SPS30;74809;48.198;16.302;2024-03-29T15:32:01;1.1;;1.1;1.0;;;;;;
84586;SPS30;74809;48.198;16.302;2024-03-29T15:37:01;0.6;;0.6;0.6;;;;;;
84586;SPS30;74809;48.198;16.302;2024-03-29T15:42:01;0.6;;0.6;0.6;;;;;;
84586;SPS30;74809;48.198;16.302;2024-03-29T15:47:01;0.6;;0.6;0.6;;;;;;
84586;SPS30;74809;48.198;16.302;2024-03-29T15:52:01;0.6;;0.6;0.6;;;;;;
84586;SPS30;74809;48.198;16.302;2024-03-29T15:57:01;0.8;;0.8;0.7;;;;;;
84586;SPS30;74809;48.198;16.302;2024-03-29T16:02:01;0.8;;0.8;0.7;;;;;;
84586;SPS30;74809;48.198;16.302;2024-03-29T16:07:01;0.7;;0.7;0.7;;;;;;
84586;SPS30;74809;48.198;16.302;2024-03-29T16:12:06;0.8;;0.8;0.8;;;;;;
84586;SPS30;74809;48.198;16.302;2024-03-29T16:17:01;1.2;;1.2;1.2;;;;;;
84586;SPS30;74809;48.198;16.302;2024-03-29T16:22:01;0.8;;0.8;0.8;;;;;;
84586;SPS30;74809;48.198;16.302;2024-03-29T16:27:01;1.2;;1.2;1.1;;;;;;
84586;SPS30;74809;48.198;16.302;2024-03-29T16:32:01;1.4;;1.5;1.3;;;;;;
84586;SPS30;74809;48.198;16.302;2024-03-29T16:37:02;1.7;;1.7;1.6;;;;;;
84586;SPS30;74809;48.198;16.302;2024-03-29T16:42:01;1.1;;1.1;1.0;;;;;;
84586;SPS30;74809;48.198;16.302;2024-03-29T16:47:01;4.9;;4.9;4.7;;;;;;
84586;SPS30;74809;48.198;16.302;2024-03-29T16:52:01;9.3;;9.3;8.9;;;;;;
84586;SPS30;74809;48.198;16.302;2024-03-29T16:57:01;1.0;;1.0;1.0;;;;;;
84586;SPS30;74809;48.198;16.302;2024-03-29T17:02:01;1.5;;1.5;1.4;;;;;;
84586;SPS30;74809;48.198;16.302;2024-03-29T17:07:06;2.6;;2.6;2.5;;;;;;
84586;SPS30;74809;48.198;16.302;2024-03-29T17:12:08;1.4;;1.4;1.3;;;;;;
84586;SPS30;74809;48.198;16.302;2024-03-29T17:17:02;1.5;;1.5;1.4;;;;;;
84586;SPS30;74809;48.198;16.302;2024-03-29T17:22:03;1.6;;1.6;1.5;;;;;;
84586;SPS30;74809;48.198;16.302;2024-03-29T17:27:04;1.3;;1.3;1.2;;;;;;
84586;SPS30;74809;48.198;16.302;2024-03-29T17:32:01;1.9;;1.9;1.8;;;;;;
84586;SPS30;74809;48.198;16.302;2024-03-29T17:37:01;2.3;;2.3;2.2;;;;;;
84586;SPS30;74809;48.198;16.302;2024-03-29T17:42:01;2.0;;2.0;1.9;;;;;;
84586;SPS30;74809;48.198;16.302;2024-03-29T17:47:01;1.7;;1.7;1.6;;;;;;
84586;SPS30;74809;48.198;16.302;2024-03-29T17:52:01;2.0;;2.0;1.9;;;;;;
84586;SPS30;74809;48.198;16.302;2024-03-29T17:57:02;1.6;;1.6;1.5;;;;;;
84586;SPS30;74809;48.198;16.302;2024-03-29T18:02:01;1.7;;1.7;1.7;;;;;;
84586;SPS30;74809;48.198;16.302;2024-03-29T18:07:01;2.1;;2.2;2.0;;;;;;
84586;SPS30;74809;48.198;16.302;2024-03-29T18:12:01;2.1;;2.1;1.9;;;;;;
84586;SPS30;74809;48.198;16.302;2024-03-29T18:17:01;2.8;;2.8;2.6;;;;;;
84586;SPS30;74809;48.198;16.302;2024-03-29T18:22:01;3.2;;3.2;3.0;;;;;;
84586;SPS30;74809;48.198;16.302;2024-03-29T18:27:05;4.2;;4.3;4.0;;;;;;
84586;SPS30;74809;48.198;16.302;2024-03-29T18:32:01;3.9;;4.0;3.7;;;;;;
84586;SPS30;74809;48.198;16.302;2024-03-29T18:37:01;4.8;;4.9;4.6;;;;;;
84586;SPS30;74809;48.198;16.302;2024-03-29T18:42:01;4.3;;4.4;4.0;;;;;;
84586;SPS30;74809;48.198;16.302;2024-03-29T18:47:01;4.1;;4.1;3.9;;;;;;
84586;SPS30;74809;48.198;16.302;2024-03-29T18:52:01;3.8;;3.8;3.6;;;;;;
84586;SPS30;74809;48.198;16.302;2024-03-29T18:57:01;4.0;;4.0;3.8;;;;;;
84586;SPS30;74809;48.198;16.302;2024-03-29T19:02:04;2.6;;2.6;2.4;;;;;;
84586;SPS30;74809;48.198;16.302;2024-03-29T19:07:01;4.1;;4.2;3.9;;;;;;
84586;SPS30;74809;48.198;16.302;2024-03-29T19:12:04;3.6;;3.6;3.4;;;;;;
84586;SPS30;74809;48.198;16.302;2024-03-29T19:17:01;3.0;;3.0;2.9;;;;;;
84586;SPS30;74809;48.198;16.302;2024-03-29T19:22:04;3.7;;3.7;3.5;;;;;;
84586;SPS30;74809;48.198;16.302;2024-03-29T19:27:04;3.6;;3.6;3.5;;;;;;
84586;SPS30;74809;48.198;16.302;2024-03-29T19:32:01;4.6;;4.7;4.4;;;;;;
84586;SPS30;74809;48.198;16.302;2024-03-29T19:37:01;4.7;;4.9;4.4;;;;;;
84586;SPS30;74809;48.198;16.302;2024-03-29T19:42:01;5.7;;5.8;5.4;;;;;;
84586;SPS30;74809;48.198;16.302;2024-03-29T19:47:01;4.7;;4.7;4.4;;;;;;
84586;SPS30;74809;48.198;16.302;2024-03-29T19:52:02;6.6;;6.7;6.2;;;;;;
84586;SPS30;74809;48.198;16.302;2024-03-29T19:57:04;6.1;;6.2;5.7;;;;;;
84586;SPS30;74809;48.198;16.302;2024-03-29T20:02:01;7.9;;8.1;7.4;;;;;;
84586;SPS30;74809;48.198;16.302;2024-03-29T20:07:01;6.2;;6.4;5.8;;;;;;
84586;SPS30;74809;48.198;16.302;2024-03-29T20:12:01;7.3;;7.3;6.9;;;;;;
84586;SPS30;74809;48.198;16.302;2024-03-29T20:17:01;8.5;;8.8;8.0;;;;;;
84586;SPS30;74809;48.198;16.302;2024-03-29T20:22:01;9.1;;9.4;8.5;;;;;;
84586;SPS30;74809;48.198;16.302;2024-03-29T20:27:01;9.8;;9.8;9.4;;;;;;
84586;SPS30;74809;48.198;16.302;2024-03-29T20:32:05;7.5;;7.5;7.1;;;;;;
84586;SPS30;74809;48.198;16.302;2024-03-29T20:37:01;15.5;;15.5;14.7;;;;;;
84586;SPS30;74809;48.198;16.302;2024-03-29T20:42:08;6.8;;6.9;6.4;;;;;;
84586;SPS30;74809;48.198;16.302;2024-03-29T20:47:01;8.4;;8.6;8.0;;;;;;
84586;SPS30;74809;48.198;16.302;2024-03-29T20:52:01;6.2;;6.3;5.9;;;;;;
84586;SPS30;74809;48.198;16.302;2024-03-29T20:57:01;10.0;;10.1;9.4;;;;;;
84586;SPS30;74809;48.198;16.302;2024-03-29T21:02:01;9.7;;10.0;9.1;;;;;;
84586;SPS30;74809;48.198;16.302;2024-03-29T21:07:04;8.6;;8.8;8.1;;;;;;
84586;SPS30;74809;48.198;16.302;2024-03-29T21:12:01;7.9;;8.0;7.5;;;;;;
84586;SPS30;74809;48.198;16.302;2024-03-29T21:17:01;7.8;;7.8;7.4;;;;;;
84586;SPS30;74809;48.198;16.302;2024-03-29T21:22:01;7.6;;7.7;7.1;;;;;;
84586;SPS30;74809;48.198;16.302;2024-03-29T21:27:04;7.9;;8.0;7.4;;;;;;
84586;SPS30;74809;48.198;16.302;2024-03-29T21:32:04;8.7;;8.8;8.2;;;;;;
84586;SPS30;74809;48.198;16.302;2024-03-29T21:37:01;7.9;;8.0;7.4;;;;;;
84586;SPS30;74809;48.198;16.302;2024-03-29T21:42:01;11.8;;12.0;11.1;;;;;;
84586;SPS30;74809;48.198;16.302;2024-03-29T21:47:03;10.5;;10.6;9.8;;;;;;
84586;SPS30;74809;48.198;16.302;2024-03-29T21:52:01;10.3;;10.4;9.7;;;;;;
84586;SPS30;74809;48.198;16.302;2024-03-29T21:57:01;7.7;;7.8;7.2;;;;;;
84586;SPS30;74809;48.198;16.302;2024-03-29T22:02:05;7.6;;7.7;7.1;;;;;;
84586;SPS30;74809;48.198;16.302;2024-03-29T22:07:01;7.3;;7.4;6.9;;;;;;
84586;SPS30;74809;48.198;16.302;2024-03-29T22:12:01;8.3;;8.4;7.9;;;;;;
84586;SPS30;74809;48.198;16.302;2024-03-29T22:17:01;8.4;;8.5;7.9;;;;;;
84586;SPS30;74809;48.198;16.302;2024-03-29T22:22:01;8.5;;8.7;8.1;;;;;;
84586;SPS30;74809;48.198;16.302;2024-03-29T22:27:01;8.8;;9.0;8.3;;;;;;
84586;SPS30;74809;48.198;16.302;2024-03-29T22:32:01;7.8;;7.8;7.4;;;;;;
84586;SPS30;74809;48.198;16.302;2024-03-29T22:37:07;6.9;;6.9;6.5;;;;;;
84586;SPS30;74809;48.198;16.302;2024-03-29T22:42:01;8.0;;8.0;7.5;;;;;;
84586;SPS30;74809;48.198;16.302;2024-03-29T22:47:01;6.7;;6.7;6.3;;;;;;
84586;SPS30;74809;48.198;16.302;2024-03-29T22:52:04;6.9;;7.0;6.5;;;;;;
84586;SPS30;74809;48.198;16.302;2024-03-29T22:57:01;7.7;;7.8;7.3;;;;;;
84586;SPS30;74809;48.198;16.302;2024-03-29T23:02:01;8.0;;8.0;7.6;;;;;;
84586;SPS30;74809;48.198;16.302;2024-03-29T23:07:01;7.9;;8.1;7.5;;;;;;
84586;SPS30;74809;48.198;16.302;2024-03-29T23:12:01;8.5;;8.6;8.1;;;;;;
84586;SPS30;74809;48.198;16.302;2024-03-29T23:17:01;9.8;;10.0;9.2;;;;;;
84586;SPS30;74809;48.198;16.302;2024-03-29T23:22:01;8.9;;9.2;8.3;;;;;;
84586;SPS30;74809;48.198;16.302;2024-03-29T23:27:01;8.1;;8.2;7.6;;;;;;
84586;SPS30;74809;48.198;16.302;2024-03-29T23:32:01;9.1;;9.1;8.6;;;;;;
84586;SPS30;74809;48.198;16.302;2024-03-29T23:37:01;8.5;;8.7;8.0;;;;;;
84586;SPS30;74809;48.198;16.302;2024-03-29T23:42:01;8.2;;8.3;7.7;;;;;;
84586;SPS30;74809;48.198;16.302;2024-03-29T23:47:01;8.0;;8.2;7.5;;;;;;
84586;SPS30;74809;48.198;16.302;2024-03-29T23:52:01;6.9;;7.2;6.3;;;;;;
84586;SPS30;74809;48.198;16.302;2024-03-29T23:57:02;7.4;;8.3;6.4;;;;;;
